Terminal Aerodrome Forecast
Issued by NWS

Home | Current Version | Previous Version | Text Only | Print | Product List | Glossary On
Versions: 1 2 3 4 5 6 7 8 9 10 11 12 13 14 15 16 17 18 19
746
FTUS42 TJSJ 291732
TAFISX
TAF
TISX 291732Z 2918/3018 11010G20KT P6SM SCT025
     FM292300 07008KT P6SM VCSH SCT025
     FM301400 10010KT P6SM VCSH SCT025 SCT050=

USA.gov is the U.S. government's official web portal to all federal, state and local government web resources and services.